CheckWX is a tool to help pilots better visualize weather data.  It is not intended as a substitute for an official pre-flight weather briefing.

00:29:07 UTC

LFST TAF
Strasbourg Airport
Strasbourg, France
TAF LFST 252300Z 2600/2624 34012KT 9999 SCT030 BKN050

Mar-26@
00:00 UTC

Mar-26 @ 00:00 UTC

Mar-27@
00:00 UTC

Mar-27 @ 00:00 UTC

TAF LFST 252300Z 2600/2624 34012KT 9999 SCT030 BKN050
Wind
  • 340° at 12 KTS
Cloud Levels
  • Scattered at 3,000' AGL
  • Broken at 5,000' AGL